DLH30E EKCH-EDDF
Flight info
| Callsign | DLH30E |
|---|---|
| Flight time | 1h 2m |
| Altitude | 38000 |
| Route | NEXEN T503 GIMRU DCT MICOS DCT RIMET/N0449F310 T157 KOKEB/N0400F230 T157 KERAX KERAX5A |
| Aircraft | A339/H-SADE1E2E3GHIJ3J5M1P2RWXY/LB2D1 |
Departure
| Time | 2026-05-04 19:32 |
|---|---|
| Airport | Copenhagen Kastrup Airport (EKCH) |
Arrival
| Time | 2026-05-04 20:34 |
|---|---|
| Airport | Frankfurt Main Airport (EDDF) |
| Time | Latitude | Longitude | Altitude | Speed | Heading |
|---|---|---|---|---|---|
| 2026-05-04 17:26 | 55.62573 | 12.65037 | 26 ft | 0 kts | 276° |
| 2026-05-04 19:08 | 55.62572 | 12.65049 | 26 ft | 1 kts | 276° |
| 2026-05-04 19:08 | 55.62571 | 12.65071 | 30 ft | 2 kts | 276° |
| 2026-05-04 19:08 | 55.62570 | 12.65093 | 28 ft | 2 kts | 282° |
| 2026-05-04 19:08 | 55.62567 | 12.65118 | 31 ft | 2 kts | 297° |
| 2026-05-04 19:09 | 55.62561 | 12.65140 | 31 ft | 2 kts | 315° |
| 2026-05-04 19:09 | 55.62550 | 12.65158 | 30 ft | 2 kts | 333° |
| 2026-05-04 19:09 | 55.62536 | 12.65171 | 30 ft | 3 kts | 344° |
| 2026-05-04 19:09 | 55.62521 | 12.65178 | 30 ft | 2 kts | 355° |
| 2026-05-04 19:10 | 55.62506 | 12.65179 | 31 ft | 2 kts | 0° |
| 2026-05-04 19:10 | 55.62494 | 12.65179 | 31 ft | 0 kts | 2° |
| 2026-05-04 19:15 | 55.62517 | 12.65175 | 31 ft | 6 kts | 356° |
| 2026-05-04 19:15 | 55.62554 | 12.65172 | 30 ft | 9 kts | 359° |
| 2026-05-04 19:16 | 55.62614 | 12.65180 | 25 ft | 8 kts | 13° |
| 2026-05-04 19:16 | 55.62649 | 12.65238 | 28 ft | 6 kts | 58° |
| 2026-05-04 19:16 | 55.62653 | 12.65302 | 26 ft | 4 kts | 94° |
| 2026-05-04 19:16 | 55.62641 | 12.65321 | 30 ft | 1 kts | 137° |
| 2026-05-04 19:17 | 55.62634 | 12.65322 | 30 ft | 1 kts | 157° |
| 2026-05-04 19:17 | 55.62626 | 12.65322 | 28 ft | 2 kts | 170° |
| 2026-05-04 19:17 | 55.62597 | 12.65328 | 29 ft | 6 kts | 175° |
| 2026-05-04 19:17 | 55.62544 | 12.65327 | 26 ft | 10 kts | 180° |
| 2026-05-04 19:18 | 55.62466 | 12.65328 | 25 ft | 12 kts | 180° |
| 2026-05-04 19:18 | 55.62388 | 12.65330 | 30 ft | 10 kts | 178° |
| 2026-05-04 19:18 | 55.62325 | 12.65323 | 26 ft | 7 kts | 197° |
| 2026-05-04 19:18 | 55.62304 | 12.65271 | 27 ft | 3 kts | 239° |
| 2026-05-04 19:19 | 55.62301 | 12.65260 | 27 ft | 0 kts | 242° |
| 2026-05-04 19:20 | 55.62297 | 12.65247 | 28 ft | 4 kts | 242° |
| 2026-05-04 19:20 | 55.62287 | 12.65204 | 28 ft | 3 kts | 250° |
| 2026-05-04 19:20 | 55.62282 | 12.65174 | 28 ft | 2 kts | 253° |
| 2026-05-04 19:21 | 55.62280 | 12.65158 | 28 ft | 1 kts | 258° |
| 2026-05-04 19:21 | 55.62279 | 12.65128 | 28 ft | 4 kts | 265° |
| 2026-05-04 19:21 | 55.62285 | 12.65074 | 28 ft | 5 kts | 286° |
| 2026-05-04 19:21 | 55.62301 | 12.65004 | 29 ft | 7 kts | 297° |
| 2026-05-04 19:22 | 55.62327 | 12.64925 | 30 ft | 8 kts | 301° |
| 2026-05-04 19:22 | 55.62362 | 12.64813 | 29 ft | 12 kts | 293° |
| 2026-05-04 19:22 | 55.62321 | 12.64705 | 28 ft | 12 kts | 240° |
| 2026-05-04 19:22 | 55.62295 | 12.64589 | 29 ft | 0 kts | 249° |
| 2026-05-04 19:26 | 55.62294 | 12.64582 | 29 ft | 3 kts | 249° |
| 2026-05-04 19:26 | 55.62279 | 12.64518 | 29 ft | 8 kts | 246° |
| 2026-05-04 19:26 | 55.62240 | 12.64408 | 29 ft | 13 kts | 233° |
| 2026-05-04 19:26 | 55.62148 | 12.64306 | 26 ft | 18 kts | 204° |
| 2026-05-04 19:27 | 55.62039 | 12.64219 | 28 ft | 17 kts | 204° |
| 2026-05-04 19:27 | 55.61933 | 12.64132 | 27 ft | 16 kts | 205° |
| 2026-05-04 19:27 | 55.61865 | 12.64086 | 27 ft | 16 kts | 193° |
| 2026-05-04 19:27 | 55.61758 | 12.64082 | 28 ft | 4 kts | 178° |
| 2026-05-04 19:30 | 55.61755 | 12.64082 | 31 ft | 2 kts | 178° |
| 2026-05-04 19:30 | 55.61734 | 12.64083 | 30 ft | 4 kts | 178° |
| 2026-05-04 19:30 | 55.61699 | 12.64085 | 28 ft | 6 kts | 178° |
| 2026-05-04 19:30 | 55.61660 | 12.64080 | 26 ft | 5 kts | 188° |
| 2026-05-04 19:31 | 55.61623 | 12.64055 | 26 ft | 6 kts | 205° |
| 2026-05-04 19:31 | 55.61578 | 12.63998 | 28 ft | 10 kts | 216° |
| 2026-05-04 19:31 | 55.61515 | 12.63907 | 27 ft | 12 kts | 231° |
| 2026-05-04 19:31 | 55.61376 | 12.63672 | 26 ft | 57 kts | 224° |
| 2026-05-04 19:32 | 55.60983 | 12.62984 | 30 ft | 120 kts | 224° |
| 2026-05-04 19:32 | 55.60170 | 12.61716 | 176 ft | 170 kts | 223° |
| 2026-05-04 19:32 | 55.59321 | 12.60417 | 1142 ft | 161 kts | 225° |
| 2026-05-04 19:32 | 55.58479 | 12.59088 | 1906 ft | 169 kts | 225° |
| 2026-05-04 19:33 | 55.57540 | 12.57661 | 2484 ft | 188 kts | 224° |
| 2026-05-04 19:33 | 55.56502 | 12.56083 | 3084 ft | 206 kts | 223° |
| 2026-05-04 19:33 | 55.55288 | 12.54492 | 3627 ft | 225 kts | 217° |
| 2026-05-04 19:33 | 55.53906 | 12.52885 | 4108 ft | 245 kts | 216° |
| 2026-05-04 19:34 | 55.52433 | 12.51189 | 4677 ft | 257 kts | 216° |
| 2026-05-04 19:34 | 55.50932 | 12.49424 | 5494 ft | 258 kts | 217° |
| 2026-05-04 19:34 | 55.49445 | 12.47640 | 6313 ft | 261 kts | 217° |
| 2026-05-04 19:34 | 55.47858 | 12.45703 | 6456 ft | 290 kts | 218° |
| 2026-05-04 19:35 | 55.46131 | 12.43581 | 6569 ft | 316 kts | 217° |
| 2026-05-04 19:35 | 55.44260 | 12.41285 | 6688 ft | 339 kts | 217° |
| 2026-05-04 19:35 | 55.42273 | 12.38862 | 7106 ft | 350 kts | 217° |
| 2026-05-04 19:35 | 55.40239 | 12.36390 | 7310 ft | 363 kts | 217° |
| 2026-05-04 19:36 | 55.38185 | 12.33901 | 7029 ft | 348 kts | 217° |
| 2026-05-04 19:36 | 55.36262 | 12.31579 | 7011 ft | 321 kts | 217° |
| 2026-05-04 19:36 | 55.34409 | 12.29332 | 7015 ft | 337 kts | 217° |
| 2026-05-04 19:36 | 55.32382 | 12.26862 | 7159 ft | 357 kts | 217° |
| 2026-05-04 19:37 | 55.30344 | 12.24394 | 8126 ft | 347 kts | 217° |
| 2026-05-04 19:37 | 55.28396 | 12.22046 | 9103 ft | 344 kts | 217° |
| 2026-05-04 19:37 | 55.26411 | 12.19650 | 9826 ft | 347 kts | 217° |
| 2026-05-04 19:37 | 55.24415 | 12.17241 | 10524 ft | 350 kts | 217° |
| 2026-05-04 19:38 | 55.22403 | 12.14814 | 11207 ft | 352 kts | 217° |
| 2026-05-04 19:38 | 55.20375 | 12.12373 | 11876 ft | 355 kts | 217° |
| 2026-05-04 19:38 | 55.18325 | 12.09847 | 12537 ft | 357 kts | 219° |
| 2026-05-04 19:38 | 55.16307 | 12.07248 | 13239 ft | 358 kts | 219° |
| 2026-05-04 19:39 | 55.14350 | 12.04710 | 14437 ft | 342 kts | 219° |
| 2026-05-04 19:39 | 55.12411 | 12.02207 | 15326 ft | 339 kts | 219° |
| 2026-05-04 19:39 | 55.10540 | 11.99798 | 15907 ft | 343 kts | 219° |
| 2026-05-04 19:39 | 55.08628 | 11.97346 | 16499 ft | 346 kts | 219° |
| 2026-05-04 19:40 | 55.06642 | 11.94812 | 17106 ft | 350 kts | 219° |
| 2026-05-04 19:40 | 55.04669 | 11.92300 | 17717 ft | 353 kts | 219° |
| 2026-05-04 19:40 | 55.02671 | 11.89760 | 18278 ft | 359 kts | 219° |
| 2026-05-04 19:40 | 55.00651 | 11.87197 | 18969 ft | 354 kts | 219° |
| 2026-05-04 19:41 | 54.99338 | 11.85538 | 19576 ft | 350 kts | 219° |
| 2026-05-04 19:41 | 54.97355 | 11.83030 | 20130 ft | 353 kts | 219° |
| 2026-05-04 19:41 | 54.94699 | 11.79669 | 20857 ft | 357 kts | 219° |
| 2026-05-04 19:41 | 54.93355 | 11.77975 | 21333 ft | 355 kts | 219° |
| 2026-05-04 19:42 | 54.91322 | 11.75411 | 21922 ft | 358 kts | 220° |
| 2026-05-04 19:42 | 54.89294 | 11.72855 | 22487 ft | 361 kts | 220° |
| 2026-05-04 19:42 | 54.87253 | 11.70285 | 23070 ft | 363 kts | 220° |
| 2026-05-04 19:42 | 54.85196 | 11.67700 | 23617 ft | 366 kts | 220° |
| 2026-05-04 19:43 | 54.83124 | 11.65101 | 24152 ft | 367 kts | 220° |
| 2026-05-04 19:43 | 54.81053 | 11.62506 | 24721 ft | 367 kts | 220° |
| 2026-05-04 19:43 | 54.78983 | 11.59922 | 25236 ft | 367 kts | 220° |
| 2026-05-04 19:43 | 54.76905 | 11.57338 | 25686 ft | 368 kts | 220° |
| 2026-05-04 19:44 | 54.74842 | 11.54779 | 26159 ft | 369 kts | 220° |
| 2026-05-04 19:44 | 54.72745 | 11.52178 | 26591 ft | 370 kts | 221° |
| 2026-05-04 19:44 | 54.70649 | 11.49582 | 27032 ft | 371 kts | 221° |
| 2026-05-04 19:44 | 54.68545 | 11.46979 | 27454 ft | 372 kts | 221° |
| 2026-05-04 19:45 | 54.66454 | 11.44399 | 28289 ft | 360 kts | 221° |
| 2026-05-04 19:45 | 54.64472 | 11.41968 | 29536 ft | 342 kts | 221° |
| 2026-05-04 19:45 | 54.62563 | 11.39619 | 30019 ft | 342 kts | 221° |
| 2026-05-04 19:45 | 54.60591 | 11.37178 | 30263 ft | 346 kts | 221° |
| 2026-05-04 19:46 | 54.58648 | 11.34778 | 30577 ft | 349 kts | 221° |
| 2026-05-04 19:46 | 54.56626 | 11.32289 | 30872 ft | 352 kts | 221° |
| 2026-05-04 19:46 | 54.54666 | 11.29880 | 31145 ft | 355 kts | 221° |
| 2026-05-04 19:46 | 54.52641 | 11.27398 | 31424 ft | 358 kts | 220° |
| 2026-05-04 19:47 | 54.50641 | 11.24953 | 31903 ft | 354 kts | 220° |
| 2026-05-04 19:47 | 54.48619 | 11.22490 | 32504 ft | 349 kts | 220° |
| 2026-05-04 19:47 | 54.46711 | 11.20159 | 32652 ft | 354 kts | 220° |
| 2026-05-04 19:47 | 54.44686 | 11.17685 | 32877 ft | 358 kts | 220° |
| 2026-05-04 19:48 | 54.42642 | 11.15194 | 33207 ft | 359 kts | 220° |
| 2026-05-04 19:48 | 54.40618 | 11.12734 | 33583 ft | 359 kts | 220° |
| 2026-05-04 19:48 | 54.38570 | 11.10246 | 33816 ft | 362 kts | 220° |
| 2026-05-04 19:48 | 54.36499 | 11.07732 | 34058 ft | 365 kts | 220° |
| 2026-05-04 19:49 | 54.34421 | 11.05212 | 34275 ft | 367 kts | 220° |
| 2026-05-04 19:49 | 54.32279 | 11.02759 | 34457 ft | 373 kts | 214° |
| 2026-05-04 19:49 | 54.29914 | 11.00829 | 34689 ft | 380 kts | 206° |
| 2026-05-04 19:49 | 54.27342 | 10.99541 | 34896 ft | 389 kts | 197° |
| 2026-05-04 19:50 | 54.24652 | 10.98803 | 35081 ft | 393 kts | 194° |
| 2026-05-04 19:50 | 54.21939 | 10.98069 | 35282 ft | 394 kts | 196° |
| 2026-05-04 19:50 | 54.19228 | 10.97265 | 35476 ft | 397 kts | 195° |
| 2026-05-04 19:50 | 54.16487 | 10.96463 | 35685 ft | 399 kts | 194° |
| 2026-05-04 19:51 | 54.13731 | 10.95745 | 35891 ft | 401 kts | 194° |
| 2026-05-04 19:51 | 54.10964 | 10.95028 | 36100 ft | 403 kts | 194° |
| 2026-05-04 19:51 | 54.08116 | 10.94266 | 36320 ft | 405 kts | 194° |
| 2026-05-04 19:51 | 54.05385 | 10.93516 | 36507 ft | 407 kts | 194° |
| 2026-05-04 19:52 | 54.02543 | 10.92724 | 36710 ft | 409 kts | 194° |
| 2026-05-04 19:52 | 53.99734 | 10.91937 | 36892 ft | 411 kts | 194° |
| 2026-05-04 19:52 | 53.96889 | 10.91139 | 37018 ft | 415 kts | 194° |
| 2026-05-04 19:53 | 53.91065 | 10.89508 | 37028 ft | 429 kts | 193° |
| 2026-05-04 19:53 | 53.85104 | 10.87849 | 37033 ft | 442 kts | 193° |
| 2026-05-04 19:54 | 53.78942 | 10.86142 | 37030 ft | 452 kts | 193° |
| 2026-05-04 19:54 | 53.72659 | 10.84409 | 37028 ft | 458 kts | 193° |
| 2026-05-04 19:55 | 53.66363 | 10.82676 | 37189 ft | 458 kts | 193° |
| 2026-05-04 19:55 | 53.63248 | 10.81823 | 37624 ft | 452 kts | 193° |
| 2026-05-04 19:55 | 53.60182 | 10.80980 | 37753 ft | 453 kts | 193° |
| 2026-05-04 19:55 | 53.57018 | 10.80110 | 37873 ft | 454 kts | 193° |
| 2026-05-04 19:56 | 53.53913 | 10.79259 | 37984 ft | 454 kts | 193° |
| 2026-05-04 19:56 | 53.47646 | 10.77546 | 38027 ft | 458 kts | 193° |
| 2026-05-04 19:57 | 53.41342 | 10.75830 | 38025 ft | 460 kts | 193° |
| 2026-05-04 19:57 | 53.34993 | 10.74107 | 38024 ft | 462 kts | 193° |
| 2026-05-04 19:58 | 53.28639 | 10.72388 | 38027 ft | 462 kts | 193° |
| 2026-05-04 19:58 | 53.22307 | 10.70679 | 38020 ft | 461 kts | 193° |
| 2026-05-04 19:59 | 53.15975 | 10.68976 | 38028 ft | 461 kts | 193° |
| 2026-05-04 19:59 | 53.09646 | 10.67279 | 38029 ft | 460 kts | 193° |
| 2026-05-04 20:00 | 53.03313 | 10.65585 | 38030 ft | 460 kts | 192° |
| 2026-05-04 20:00 | 52.96988 | 10.63899 | 38031 ft | 460 kts | 193° |
| 2026-05-04 20:01 | 52.90680 | 10.62222 | 38030 ft | 460 kts | 192° |
| 2026-05-04 20:01 | 52.84351 | 10.60546 | 38028 ft | 460 kts | 192° |
| 2026-05-04 20:02 | 52.77991 | 10.58867 | 38028 ft | 460 kts | 192° |
| 2026-05-04 20:02 | 52.71633 | 10.57192 | 38027 ft | 460 kts | 192° |
| 2026-05-04 20:03 | 52.65308 | 10.55531 | 38030 ft | 460 kts | 192° |
| 2026-05-04 20:03 | 52.58967 | 10.53870 | 38037 ft | 460 kts | 192° |
| 2026-05-04 20:04 | 52.52627 | 10.52214 | 38034 ft | 460 kts | 192° |
| 2026-05-04 20:04 | 52.47324 | 10.50831 | 38070 ft | 461 kts | 192° |
| 2026-05-04 20:05 | 52.39894 | 10.48903 | 37988 ft | 462 kts | 192° |
| 2026-05-04 20:05 | 52.34604 | 10.47534 | 37930 ft | 463 kts | 192° |
| 2026-05-04 20:06 | 52.28271 | 10.45902 | 37771 ft | 453 kts | 192° |
| 2026-05-04 20:06 | 52.25134 | 10.45096 | 37470 ft | 448 kts | 192° |
| 2026-05-04 20:06 | 52.22069 | 10.44308 | 37161 ft | 445 kts | 192° |
| 2026-05-04 20:06 | 52.19002 | 10.43519 | 36870 ft | 444 kts | 192° |
| 2026-05-04 20:07 | 52.15946 | 10.42733 | 36584 ft | 444 kts | 192° |
| 2026-05-04 20:07 | 52.12899 | 10.41951 | 36299 ft | 444 kts | 193° |
| 2026-05-04 20:07 | 52.09839 | 10.41167 | 36012 ft | 443 kts | 193° |
| 2026-05-04 20:07 | 52.06793 | 10.40388 | 35732 ft | 443 kts | 193° |
| 2026-05-04 20:08 | 52.03750 | 10.39611 | 35438 ft | 442 kts | 193° |
| 2026-05-04 20:08 | 52.00719 | 10.38838 | 35171 ft | 441 kts | 193° |
| 2026-05-04 20:08 | 51.97677 | 10.38065 | 34846 ft | 439 kts | 193° |
| 2026-05-04 20:08 | 51.94583 | 10.37279 | 34501 ft | 439 kts | 193° |
| 2026-05-04 20:09 | 51.91579 | 10.36516 | 34166 ft | 438 kts | 193° |
| 2026-05-04 20:09 | 51.88563 | 10.35751 | 33809 ft | 438 kts | 193° |
| 2026-05-04 20:09 | 51.85506 | 10.34973 | 33424 ft | 439 kts | 193° |
| 2026-05-04 20:09 | 51.82522 | 10.34217 | 33026 ft | 440 kts | 193° |
| 2026-05-04 20:10 | 51.79489 | 10.33450 | 32651 ft | 441 kts | 193° |
| 2026-05-04 20:10 | 51.76438 | 10.32681 | 32285 ft | 443 kts | 193° |
| 2026-05-04 20:10 | 51.73400 | 10.31917 | 32104 ft | 444 kts | 193° |
| 2026-05-04 20:11 | 51.67315 | 10.30389 | 31990 ft | 446 kts | 193° |
| 2026-05-04 20:11 | 51.61136 | 10.28842 | 31650 ft | 446 kts | 193° |
| 2026-05-04 20:11 | 51.58068 | 10.28074 | 31149 ft | 445 kts | 192° |
| 2026-05-04 20:12 | 51.55013 | 10.27309 | 30416 ft | 444 kts | 192° |
| 2026-05-04 20:12 | 51.51958 | 10.26547 | 29437 ft | 445 kts | 192° |
| 2026-05-04 20:12 | 51.48897 | 10.25783 | 28413 ft | 445 kts | 192° |
| 2026-05-04 20:12 | 51.45826 | 10.25016 | 27428 ft | 446 kts | 192° |
| 2026-05-04 20:13 | 51.42758 | 10.24254 | 26467 ft | 446 kts | 192° |
| 2026-05-04 20:13 | 51.39687 | 10.23493 | 25823 ft | 441 kts | 191° |
| 2026-05-04 20:13 | 51.36721 | 10.22765 | 25711 ft | 422 kts | 191° |
| 2026-05-04 20:13 | 51.33870 | 10.22108 | 25593 ft | 407 kts | 189° |
| 2026-05-04 20:14 | 51.31038 | 10.21846 | 25478 ft | 411 kts | 184° |
| 2026-05-04 20:14 | 51.28169 | 10.21813 | 25377 ft | 413 kts | 184° |
| 2026-05-04 20:14 | 51.25283 | 10.21769 | 25279 ft | 413 kts | 184° |
| 2026-05-04 20:14 | 51.22409 | 10.21717 | 25172 ft | 412 kts | 184° |
| 2026-05-04 20:15 | 51.19533 | 10.21659 | 25063 ft | 412 kts | 184° |
| 2026-05-04 20:15 | 51.16666 | 10.21599 | 24963 ft | 411 kts | 184° |
| 2026-05-04 20:15 | 51.13831 | 10.21540 | 24960 ft | 411 kts | 184° |
| 2026-05-04 20:15 | 51.10930 | 10.21483 | 24735 ft | 412 kts | 183° |
| 2026-05-04 20:16 | 51.08064 | 10.21431 | 24323 ft | 411 kts | 183° |
| 2026-05-04 20:16 | 51.05215 | 10.21381 | 23918 ft | 408 kts | 183° |
| 2026-05-04 20:16 | 51.02388 | 10.21333 | 23461 ft | 405 kts | 183° |
| 2026-05-04 20:16 | 50.99565 | 10.21284 | 22984 ft | 402 kts | 183° |
| 2026-05-04 20:17 | 50.96785 | 10.21235 | 22496 ft | 400 kts | 183° |
| 2026-05-04 20:17 | 50.94003 | 10.21185 | 22025 ft | 398 kts | 183° |
| 2026-05-04 20:17 | 50.91231 | 10.21136 | 21556 ft | 396 kts | 183° |
| 2026-05-04 20:17 | 50.88486 | 10.21087 | 21089 ft | 393 kts | 183° |
| 2026-05-04 20:18 | 50.85755 | 10.21035 | 20634 ft | 390 kts | 183° |
| 2026-05-04 20:18 | 50.83094 | 10.20467 | 20165 ft | 384 kts | 197° |
| 2026-05-04 20:18 | 50.80663 | 10.18803 | 19735 ft | 380 kts | 212° |
| 2026-05-04 20:18 | 50.78636 | 10.16167 | 19613 ft | 377 kts | 227° |
| 2026-05-04 20:19 | 50.77109 | 10.12806 | 19511 ft | 378 kts | 241° |
| 2026-05-04 20:19 | 50.75943 | 10.09071 | 19412 ft | 379 kts | 243° |
| 2026-05-04 20:19 | 50.74770 | 10.05327 | 19391 ft | 378 kts | 243° |
| 2026-05-04 20:19 | 50.73596 | 10.01627 | 19384 ft | 378 kts | 242° |
| 2026-05-04 20:20 | 50.72412 | 9.97921 | 19389 ft | 378 kts | 242° |
| 2026-05-04 20:20 | 50.71219 | 9.94199 | 19389 ft | 379 kts | 242° |
| 2026-05-04 20:20 | 50.70010 | 9.90436 | 19387 ft | 378 kts | 242° |
| 2026-05-04 20:20 | 50.68818 | 9.86735 | 19388 ft | 379 kts | 242° |
| 2026-05-04 20:21 | 50.67623 | 9.83022 | 19399 ft | 378 kts | 242° |
| 2026-05-04 20:21 | 50.66436 | 9.79343 | 19387 ft | 377 kts | 242° |
| 2026-05-04 20:21 | 50.64046 | 9.71984 | 19347 ft | 377 kts | 240° |
| 2026-05-04 20:22 | 50.62481 | 9.68665 | 19050 ft | 375 kts | 225° |
| 2026-05-04 20:22 | 50.60422 | 9.66166 | 18695 ft | 373 kts | 210° |
| 2026-05-04 20:22 | 50.58083 | 9.64567 | 18399 ft | 370 kts | 201° |
| 2026-05-04 20:22 | 50.55668 | 9.63154 | 18312 ft | 370 kts | 202° |
| 2026-05-04 20:23 | 50.53256 | 9.61707 | 18218 ft | 371 kts | 202° |
| 2026-05-04 20:23 | 50.50831 | 9.60193 | 18184 ft | 369 kts | 206° |
| 2026-05-04 20:23 | 50.48698 | 9.57967 | 18188 ft | 369 kts | 223° |
| 2026-05-04 20:23 | 50.47083 | 9.54847 | 18205 ft | 371 kts | 238° |
| 2026-05-04 20:24 | 50.46099 | 9.51098 | 18193 ft | 372 kts | 252° |
| 2026-05-04 20:24 | 50.45395 | 9.47167 | 18195 ft | 373 kts | 252° |
| 2026-05-04 20:24 | 50.44688 | 9.43290 | 18191 ft | 358 kts | 252° |
| 2026-05-04 20:24 | 50.44011 | 9.39638 | 18176 ft | 337 kts | 251° |
| 2026-05-04 20:25 | 50.43580 | 9.37343 | 18176 ft | 325 kts | 251° |
| 2026-05-04 20:25 | 50.42926 | 9.33905 | 18191 ft | 328 kts | 251° |
| 2026-05-04 20:25 | 50.42267 | 9.30469 | 18196 ft | 330 kts | 251° |
| 2026-05-04 20:25 | 50.41548 | 9.27121 | 18198 ft | 328 kts | 245° |
| 2026-05-04 20:26 | 50.40449 | 9.24003 | 18179 ft | 327 kts | 234° |
| 2026-05-04 20:26 | 50.38990 | 9.21281 | 18201 ft | 326 kts | 224° |
| 2026-05-04 20:26 | 50.37377 | 9.18787 | 18178 ft | 326 kts | 224° |
| 2026-05-04 20:26 | 50.35795 | 9.16295 | 18177 ft | 326 kts | 225° |
| 2026-05-04 20:27 | 50.34168 | 9.13743 | 18179 ft | 326 kts | 223° |
| 2026-05-04 20:27 | 50.32385 | 9.11551 | 18182 ft | 326 kts | 211° |
| 2026-05-04 20:27 | 50.30265 | 9.10202 | 18186 ft | 327 kts | 194° |
| 2026-05-04 20:27 | 50.27991 | 9.09880 | 18177 ft | 330 kts | 179° |
| 2026-05-04 20:28 | 50.25732 | 9.10618 | 18194 ft | 335 kts | 162° |
| 2026-05-04 20:28 | 50.23672 | 9.12365 | 18036 ft | 341 kts | 146° |
| 2026-05-04 20:28 | 50.21686 | 9.14204 | 17660 ft | 334 kts | 163° |
| 2026-05-04 20:28 | 50.19399 | 9.14824 | 16989 ft | 329 kts | 183° |
| 2026-05-04 20:29 | 50.17177 | 9.14112 | 16055 ft | 333 kts | 204° |
| 2026-05-04 20:29 | 50.15202 | 9.12106 | 14845 ft | 345 kts | 223° |
| 2026-05-04 20:29 | 50.13732 | 9.09045 | 13412 ft | 364 kts | 242° |
| 2026-05-04 20:29 | 50.12957 | 9.05202 | 12167 ft | 377 kts | 261° |
| 2026-05-04 20:30 | 50.12848 | 9.01163 | 11374 ft | 372 kts | 267° |
| 2026-05-04 20:30 | 50.12824 | 8.97141 | 10469 ft | 369 kts | 266° |
| 2026-05-04 20:30 | 50.12759 | 8.93206 | 9606 ft | 365 kts | 265° |
| 2026-05-04 20:30 | 50.12610 | 8.89097 | 8611 ft | 361 kts | 262° |
| 2026-05-04 20:31 | 50.12134 | 8.85341 | 7850 ft | 354 kts | 252° |
| 2026-05-04 20:31 | 50.11380 | 8.81806 | 7747 ft | 328 kts | 248° |
| 2026-05-04 20:31 | 50.10601 | 8.78588 | 7579 ft | 306 kts | 248° |
| 2026-05-04 20:31 | 50.09882 | 8.75551 | 7197 ft | 293 kts | 247° |
| 2026-05-04 20:32 | 50.09170 | 8.72548 | 5974 ft | 303 kts | 249° |
| 2026-05-04 20:32 | 50.08470 | 8.69187 | 4154 ft | 338 kts | 252° |
| 2026-05-04 20:32 | 50.07711 | 8.65588 | 3134 ft | 341 kts | 251° |
| 2026-05-04 20:32 | 50.06986 | 8.62319 | 2858 ft | 294 kts | 250° |
| 2026-05-04 20:33 | 50.06355 | 8.60030 | 2017 ft | 271 kts | 245° |
| 2026-05-04 20:33 | 50.05700 | 8.57934 | 1317 ft | 252 kts | 246° |
| 2026-05-04 20:33 | 50.05120 | 8.55666 | 844 ft | 214 kts | 249° |
| 2026-05-04 20:33 | 50.04623 | 8.53540 | 434 ft | 187 kts | 250° |
| 2026-05-04 20:34 | 50.04270 | 8.52069 | 353 ft | 163 kts | 249° |
| 2026-05-04 20:34 | 50.03925 | 8.50604 | 332 ft | 110 kts | 248° |
| 2026-05-04 20:34 | 50.03767 | 8.49991 | 326 ft | 70 kts | 250° |
| 2026-05-04 20:34 | 50.03710 | 8.49776 | 323 ft | 1 kts | 222° |
| 2026-05-04 20:35 | 50.03635 | 8.49713 | 326 ft | 31 kts | 193° |
| 2026-05-04 20:35 | 50.03516 | 8.49804 | 325 ft | 10 kts | 107° |
| 2026-05-04 20:35 | 50.03524 | 8.49873 | 326 ft | 4 kts | 79° |
| 2026-05-04 20:35 | 50.03526 | 8.49889 | 328 ft | 0 kts | 79° |
| 2026-05-04 20:37 | 50.03532 | 8.49907 | 326 ft | 8 kts | 67° |
| 2026-05-04 20:37 | 50.03586 | 8.50112 | 329 ft | 29 kts | 69° |
| 2026-05-04 20:38 | 50.03656 | 8.50406 | 331 ft | 28 kts | 71° |
| 2026-05-04 20:38 | 50.03722 | 8.50679 | 334 ft | 26 kts | 69° |
| 2026-05-04 20:38 | 50.03788 | 8.50945 | 338 ft | 25 kts | 69° |
| 2026-05-04 20:38 | 50.03848 | 8.51190 | 342 ft | 24 kts | 71° |
| 2026-05-04 20:39 | 50.03909 | 8.51460 | 343 ft | 33 kts | 69° |
| 2026-05-04 20:39 | 50.03994 | 8.51807 | 352 ft | 35 kts | 70° |
| 2026-05-04 20:39 | 50.04078 | 8.52170 | 359 ft | 36 kts | 69° |
| 2026-05-04 20:39 | 50.04169 | 8.52535 | 365 ft | 36 kts | 69° |
| 2026-05-04 20:40 | 50.04204 | 8.52678 | 366 ft | 36 kts | 69° |
| 2026-05-04 20:40 | 50.04279 | 8.52997 | 365 ft | 16 kts | 70° |
| 2026-05-04 20:40 | 50.04317 | 8.53155 | 368 ft | 15 kts | 70° |
| 2026-05-04 20:40 | 50.04352 | 8.53302 | 373 ft | 14 kts | 70° |
| 2026-05-04 20:41 | 50.04387 | 8.53457 | 375 ft | 15 kts | 72° |
| 2026-05-04 20:41 | 50.04402 | 8.53623 | 372 ft | 16 kts | 87° |
| 2026-05-04 20:41 | 50.04412 | 8.53797 | 378 ft | 17 kts | 81° |
| 2026-05-04 20:41 | 50.04427 | 8.54004 | 372 ft | 21 kts | 85° |
| 2026-05-04 20:42 | 50.04445 | 8.54251 | 378 ft | 25 kts | 83° |
| 2026-05-04 20:42 | 50.04444 | 8.54518 | 376 ft | 25 kts | 103° |
| 2026-05-04 20:42 | 50.04430 | 8.54593 | 374 ft | 0 kts | 109° |
| 2026-05-04 20:42 | 50.04427 | 8.54601 | 375 ft | 2 kts | 116° |
| 2026-05-04 20:43 | 50.04416 | 8.54626 | 374 ft | 4 kts | 122° |
| 2026-05-04 20:43 | 50.04387 | 8.54683 | 377 ft | 10 kts | 132° |
| 2026-05-04 20:43 | 50.04323 | 8.54763 | 377 ft | 14 kts | 149° |
| 2026-05-04 20:43 | 50.04217 | 8.54826 | 378 ft | 18 kts | 162° |
| 2026-05-04 20:44 | 50.04094 | 8.54899 | 376 ft | 19 kts | 159° |
| 2026-05-04 20:44 | 50.04025 | 8.55026 | 379 ft | 12 kts | 77° |
| 2026-05-04 20:44 | 50.04055 | 8.55156 | 376 ft | 13 kts | 72° |
| 2026-05-04 20:44 | 50.04061 | 8.55184 | 375 ft | 0 kts | 71° |
| 2026-05-04 20:45 | 50.04063 | 8.55190 | 374 ft | 2 kts | 71° |
| 2026-05-04 20:45 | 50.04074 | 8.55241 | 374 ft | 11 kts | 71° |
| 2026-05-04 20:45 | 50.04078 | 8.55380 | 378 ft | 15 kts | 117° |
| 2026-05-04 20:46 | 50.03984 | 8.55465 | 377 ft | 16 kts | 142° |
| 2026-05-04 20:46 | 50.03950 | 8.55527 | 374 ft | 0 kts | 126° |
| 2026-05-04 20:46 | 50.03950 | 8.55543 | 373 ft | 2 kts | 94° |
| 2026-05-04 20:46 | 50.03962 | 8.55587 | 376 ft | 0 kts | 70° |